YPKG/KGI METAR and TAF weather

Enter ICAO airport designator
Station Type Date Time Source
YPKG METAR 2022/12/04 13:00 UTC NOAA

YPKG 041300Z AUTO 11018KT 9999 // NCD 23/13 Q1012 RF00.0/000.0


Station Type Date Time Source
YPKG Decoded METAR 2022/12/04 13:00 UTC NOAA

Kalgoorlie Boulder Amo, Australia (YPKG) 30-47S 121-27E 370M
Dec 04, 2022 - 08:00 AM EST / 2022.12.04 1300 UTC
Wind: from the ESE (110 degrees) at 21 MPH (18 KT):0
Visibility: greater than 7 mile(s):0
Temperature: 73 F (23 C)
Dew Point: 55 F (13 C)
Relative Humidity: 53%
Pressure (altimeter): 29.88 in. Hg (1012 hPa)
ob: YPKG 041300Z AUTO 11018KT 9999 // NCD 23/13 Q1012 RF00.0/000.0
cycle: 13

Station Type Date Time Source
YPKG TAF 2022/12/04 12:00 UTC NOAA

TAF YPKG 041106Z 0412/0512 11015G25KT CAVOK
FM041600 10014KT 9999 SCT012
FM042000 10011KT 9999 BKN012
FM050100 09011KT CAVOK
FM050800 16012KT CAVOK

Example: see airport list